createdAt,value
2023-01-13T00:01:22.118Z,99422.16
2023-01-13T00:03:50.660Z,99442.13
2023-01-13T00:06:20.698Z,99436.88
2023-01-13T00:08:49.802Z,99465.63
2023-01-13T00:11:19.825Z,99462.31
2023-01-13T00:13:48.221Z,99467.50
2023-01-13T00:16:17.650Z,99464.94
2023-01-13T00:18:46.511Z,99473.41
2023-01-13T00:21:16.434Z,99461.41
2023-01-13T00:23:45.084Z,99472.41
2023-01-13T00:26:16.038Z,99471.66
2023-01-13T00:28:45.520Z,99474.44
2023-01-13T00:31:15.518Z,99469.91
2023-01-13T00:33:43.986Z,99472.53
2023-01-13T00:36:13.535Z,99465.31
2023-01-13T00:38:43.026Z,99455.41
2023-01-13T00:41:12.414Z,99459.88
2023-01-13T00:43:39.831Z,99464.97
2023-01-13T00:46:10.889Z,99461.88
2023-01-13T00:48:39.489Z,99470.59
2023-01-13T00:51:09.913Z,99472.63
2023-01-13T00:53:39.150Z,99473.22
2023-01-13T00:56:09.782Z,99469.06
2023-01-13T00:58:38.046Z,99485.38
2023-01-13T01:01:09.392Z,99478.41
2023-01-13T01:03:39.457Z,99478.50
2023-01-13T01:06:09.651Z,99482.53
2023-01-13T01:08:37.990Z,99488.09
2023-01-13T01:11:07.215Z,99490.16
2023-01-13T01:13:36.010Z,99494.66
2023-01-13T01:16:07.306Z,99496.38
2023-01-13T01:18:35.787Z,99491.13
2023-01-13T01:21:05.903Z,99486.72
2023-01-13T01:23:35.350Z,99485.97
2023-01-13T01:26:04.179Z,99481.59
2023-01-13T01:28:32.489Z,99486.09
2023-01-13T01:31:01.994Z,99490.59
2023-01-13T01:33:30.164Z,99487.38
2023-01-13T01:35:58.274Z,99495.66
2023-01-13T01:38:27.926Z,99496.94
2023-01-13T01:40:56.217Z,99499.22
2023-01-13T01:44:03.000Z,99522.72
2023-01-13T01:46:33.658Z,99508.78
2023-01-13T01:49:10.144Z,99502.56
2023-01-13T01:51:40.711Z,99509.84
2023-01-13T01:54:12.335Z,99515.34
2023-01-13T01:56:42.976Z,99523.50
2023-01-13T01:59:11.517Z,99519.09
2023-01-13T02:01:40.882Z,99528.31
2023-01-13T02:04:13.561Z,99502.69
2023-01-13T02:06:42.339Z,99502.16
2023-01-13T02:09:12.120Z,99512.31
2023-01-13T02:11:57.623Z,99510.94
2023-01-13T02:14:29.509Z,99506.78
2023-01-13T02:17:16.251Z,99504.41
2023-01-13T02:20:05.497Z,99519.84
2023-01-13T02:22:53.616Z,99516.59
2023-01-13T02:25:48.852Z,99508.88
2023-01-13T02:28:38.038Z,99511.03
2023-01-13T02:31:28.609Z,99502.44
2023-01-13T02:34:03.273Z,99502.88
2023-01-13T02:36:39.093Z,99496.22
2023-01-13T02:39:14.130Z,99503.94
2023-01-13T02:42:05.753Z,99498.84
2023-01-13T02:44:42.145Z,99511.59
2023-01-13T02:47:15.615Z,99510.22
2023-01-13T02:49:46.307Z,99508.56
2023-01-13T02:52:17.711Z,99504.50
2023-01-13T02:54:50.080Z,99502.78
2023-01-13T02:57:19.323Z,99492.38
2023-01-13T02:59:47.652Z,99489.91
2023-01-13T03:02:21.343Z,99498.91
2023-01-13T03:04:55.032Z,99498.16
2023-01-13T03:07:58.166Z,99506.38
2023-01-13T03:10:47.501Z,99503.81
2023-01-13T03:14:01.258Z,99514.69
2023-01-13T03:16:40.253Z,99514.91
2023-01-13T03:19:17.014Z,99513.31
2023-01-13T03:21:51.754Z,99512.34
2023-01-13T03:24:23.732Z,99506.97
2023-01-13T03:26:56.258Z,99499.91
2023-01-13T03:29:27.025Z,99505.28
2023-01-13T03:31:59.674Z,99511.47
2023-01-13T03:34:32.659Z,99508.69
2023-01-13T03:37:03.477Z,99505.91
2023-01-13T03:39:34.127Z,99504.97
2023-01-13T03:42:05.805Z,99512.03
2023-01-13T03:44:34.962Z,99506.59
2023-01-13T03:47:08.860Z,99514.53
2023-01-13T03:49:42.191Z,99511.63
2023-01-13T03:52:14.393Z,99511.53
2023-01-13T03:54:47.725Z,99521.06
2023-01-13T03:57:17.539Z,99527.28
2023-01-13T03:59:49.863Z,99529.00
2023-01-13T04:02:23.354Z,99519.94
2023-01-13T04:04:55.933Z,99512.84
2023-01-13T04:07:29.830Z,99521.63
2023-01-13T04:10:00.355Z,99510.81
2023-01-13T04:12:52.432Z,99510.81
2023-01-13T04:15:23.047Z,99509.00
2023-01-13T04:17:51.305Z,99510.72
2023-01-13T04:20:21.134Z,99513.28
2023-01-13T04:22:49.202Z,99503.31
2023-01-13T04:25:17.547Z,99517.47
2023-01-13T04:27:45.821Z,99495.19
2023-01-13T04:30:14.460Z,99494.34
2023-01-13T04:32:42.542Z,99487.16
2023-01-13T04:35:10.857Z,99502.25
2023-01-13T04:37:40.318Z,99490.63
2023-01-13T04:40:09.868Z,99495.97
2023-01-13T04:42:37.931Z,99492.31
2023-01-13T04:45:06.817Z,99494.16
2023-01-13T04:47:34.903Z,99496.63
2023-01-13T04:50:02.996Z,99492.00
2023-01-13T04:52:31.061Z,99489.13
2023-01-13T04:55:00.494Z,99493.59
2023-01-13T04:57:28.676Z,99492.44
2023-01-13T04:59:56.748Z,99495.09
2023-01-13T05:02:24.809Z,99491.50
2023-01-13T05:04:52.898Z,99477.13
2023-01-13T05:07:20.997Z,99478.00
2023-01-13T05:09:49.076Z,99478.84
2023-01-13T05:12:36.041Z,99465.56
2023-01-13T05:15:22.170Z,99478.97
2023-01-13T05:17:50.899Z,99474.56
2023-01-13T05:20:19.368Z,99489.69
2023-01-13T05:23:04.983Z,99497.72
2023-01-13T05:25:33.669Z,99498.75
2023-01-13T05:28:03.080Z,99489.88
2023-01-13T05:30:33.383Z,99496.19
2023-01-13T05:33:01.536Z,99490.81
2023-01-13T05:35:30.182Z,99490.72
2023-01-13T05:37:58.297Z,99485.38
2023-01-13T05:40:43.765Z,99494.25
2023-01-13T05:43:21.392Z,99497.78
2023-01-13T05:45:50.620Z,99493.41
2023-01-13T05:48:19.446Z,99500.56
2023-01-13T05:50:49.176Z,99490.72
2023-01-13T05:53:18.314Z,99491.69
2023-01-13T05:55:46.856Z,99487.28
2023-01-13T05:58:17.785Z,99489.13
2023-01-13T06:00:46.179Z,99483.13
2023-01-13T06:03:15.970Z,99473.47
2023-01-13T06:05:44.555Z,99480.66
2023-01-13T06:08:12.637Z,99471.09
2023-01-13T06:10:40.704Z,99471.09
2023-01-13T06:13:08.804Z,99473.03
2023-01-13T06:15:38.244Z,99477.50
2023-01-13T06:18:06.657Z,99486.50
2023-01-13T06:20:35.009Z,99485.00
2023-01-13T06:23:03.094Z,99493.16
2023-01-13T06:25:39.390Z,99482.34
2023-01-13T06:28:07.513Z,99479.75
2023-01-13T06:30:40.726Z,99475.25
2023-01-13T06:33:12.182Z,99470.94
2023-01-13T06:35:42.221Z,99467.34
2023-01-13T06:38:12.116Z,99469.25
2023-01-13T06:40:41.953Z,99475.38
2023-01-13T06:43:16.299Z,99466.38
2023-01-13T06:45:48.956Z,99473.44
2023-01-13T06:48:17.600Z,99475.25
2023-01-13T06:50:45.859Z,99478.81
2023-01-13T06:53:13.968Z,99480.63
2023-01-13T06:55:42.083Z,99478.81
2023-01-13T06:58:10.243Z,99474.41
2023-01-13T07:00:38.525Z,99474.31
2023-01-13T07:03:12.350Z,99473.44
2023-01-13T07:05:41.659Z,99476.22
2023-01-13T07:08:10.304Z,99466.38
2023-01-13T07:10:38.731Z,99464.66
2023-01-13T07:13:24.460Z,99455.66
2023-01-13T07:15:56.913Z,99460.16
2023-01-13T07:18:28.475Z,99452.13
2023-01-13T07:20:57.736Z,99459.31
2023-01-13T07:23:26.629Z,99464.66
2023-01-13T07:25:56.479Z,99447.75
2023-01-13T07:28:25.039Z,99457.38
2023-01-13T07:30:53.320Z,99456.31
2023-01-13T07:33:21.920Z,99456.00
2023-01-13T07:35:57.842Z,99456.66
2023-01-13T07:38:26.023Z,99454.63
2023-01-13T07:40:54.135Z,99447.22
2023-01-13T07:43:33.314Z,99457.72
2023-01-13T07:46:03.075Z,99461.25
2023-01-13T07:48:32.109Z,99462.69
2023-01-13T07:51:04.671Z,99451.75
2023-01-13T07:53:32.931Z,99454.22
2023-01-13T07:56:01.203Z,99461.19
2023-01-13T07:58:29.996Z,99451.22
2023-01-13T08:00:58.474Z,99462.69
2023-01-13T08:03:27.634Z,99463.44
2023-01-13T08:05:55.712Z,99457.97
2023-01-13T08:08:25.180Z,99460.53
2023-01-13T08:10:53.260Z,99455.94
2023-01-13T08:13:21.188Z,99467.41
2023-01-13T08:15:51.196Z,99449.53
2023-01-13T08:18:22.058Z,99451.22
2023-01-13T08:20:52.323Z,99449.31
2023-01-13T08:23:20.873Z,99446.63
2023-01-13T08:25:51.151Z,99466.25
2023-01-13T08:28:19.219Z,99438.47
2023-01-13T08:30:47.388Z,99441.03
2023-01-13T08:33:15.519Z,99448.97
2023-01-13T08:35:43.721Z,99440.72
2023-01-13T08:38:11.779Z,99444.16
2023-01-13T08:40:41.157Z,99439.44
2023-01-13T08:43:10.651Z,99425.81
2023-01-13T08:45:38.735Z,99446.16
2023-01-13T08:48:07.295Z,99452.28
2023-01-13T08:50:35.586Z,99445.00
2023-01-13T08:53:03.922Z,99439.66
2023-01-13T08:55:31.990Z,99439.66
2023-01-13T08:58:14.708Z,99442.09
2023-01-13T09:00:45.951Z,99435.78
2023-01-13T09:03:14.058Z,99438.97
2023-01-13T09:05:42.140Z,99433.19
2023-01-13T09:08:10.245Z,99434.44
2023-01-13T09:10:40.348Z,99420.00
2023-01-13T09:13:13.183Z,99417.31
2023-01-13T09:15:43.036Z,99420.72
2023-01-13T09:18:12.748Z,99422.44
2023-01-13T09:20:41.022Z,99414.72
2023-01-13T09:23:10.976Z,99419.13
2023-01-13T09:25:39.569Z,99446.69
2023-01-13T09:28:08.475Z,99427.06
2023-01-13T09:30:38.024Z,99426.94
2023-01-13T09:33:23.642Z,99439.38
2023-01-13T09:35:53.182Z,99448.41
2023-01-13T09:38:21.251Z,99441.63
2023-01-13T09:40:50.258Z,99446.47
2023-01-13T09:43:40.003Z,99448.84
2023-01-13T09:46:36.260Z,99442.22
2023-01-13T09:49:04.742Z,99444.47
2023-01-13T09:51:40.185Z,99444.06
2023-01-13T09:54:16.155Z,99448.84
2023-01-13T09:56:44.573Z,99445.44
2023-01-13T09:59:13.202Z,99455.28
2023-01-13T10:01:51.777Z,99448.34
2023-01-13T10:04:19.953Z,99453.81
2023-01-13T10:06:53.049Z,99446.72
2023-01-13T10:09:27.715Z,99447.81
2023-01-13T10:12:14.825Z,99450.56
2023-01-13T10:14:46.741Z,99451.66
2023-01-13T10:17:20.371Z,99439.97
2023-01-13T10:19:51.847Z,99442.44
2023-01-13T10:22:44.757Z,99434.19
2023-01-13T10:25:28.499Z,99429.47
2023-01-13T10:27:57.686Z,99429.06
2023-01-13T10:30:31.241Z,99434.94
2023-01-13T10:33:01.075Z,99431.81
2023-01-13T10:35:55.472Z,99429.56
2023-01-13T10:38:26.742Z,99423.75
2023-01-13T10:40:56.546Z,99422.69
2023-01-13T10:43:25.061Z,99448.31
2023-01-13T10:46:00.430Z,99431.88
2023-01-13T10:48:40.377Z,99431.03
2023-01-13T10:51:20.647Z,99428.56
2023-01-13T10:53:55.158Z,99425.66
2023-01-13T10:56:25.131Z,99435.41
2023-01-13T10:58:53.231Z,99436.50
2023-01-13T11:01:26.876Z,99435.31
2023-01-13T11:03:56.214Z,99429.69
2023-01-13T11:06:27.279Z,99434.47
2023-01-13T11:08:59.145Z,99424.22
2023-01-13T11:11:37.426Z,99428.16
2023-01-13T11:14:26.454Z,99439.34
2023-01-13T11:16:58.887Z,99420.06
2023-01-13T11:19:28.644Z,99430.09
2023-01-13T11:22:01.000Z,99422.19
2023-01-13T11:24:36.749Z,99428.50
2023-01-13T11:27:08.353Z,99433.00
2023-01-13T11:29:42.194Z,99426.56
2023-01-13T11:32:13.604Z,99424.84
2023-01-13T11:34:45.050Z,99425.59
2023-01-13T11:37:20.635Z,99426.44
2023-01-13T11:39:56.840Z,99417.38
2023-01-13T11:42:27.623Z,99425.19
2023-01-13T11:45:05.893Z,99423.38
2023-01-13T11:47:35.052Z,99414.34
2023-01-13T11:50:05.770Z,99422.41
2023-01-13T11:52:49.026Z,99417.03
2023-01-13T11:55:27.247Z,99433.13
2023-01-13T11:58:07.443Z,99428.72
2023-01-13T12:00:45.916Z,99434.31
2023-01-13T12:03:24.377Z,99434.50
2023-01-13T12:06:03.527Z,99449.81
2023-01-13T12:08:53.140Z,99452.72
2023-01-13T12:11:27.464Z,99440.50
2023-01-13T12:14:10.405Z,99443.38
2023-01-13T12:16:43.304Z,99443.38
2023-01-13T12:19:24.430Z,99452.50
2023-01-13T12:22:09.144Z,99432.03
2023-01-13T12:24:42.012Z,99439.31
2023-01-13T12:27:17.001Z,99442.75
2023-01-13T12:29:46.223Z,99444.47
2023-01-13T12:32:19.117Z,99453.34
2023-01-13T12:34:53.433Z,99455.91
2023-01-13T12:37:26.949Z,99440.69
2023-01-13T12:40:05.487Z,99454.88
2023-01-13T12:42:59.047Z,99451.22
2023-01-13T12:45:29.526Z,99442.00
2023-01-13T12:47:58.098Z,99450.03
2023-01-13T12:50:43.649Z,99458.94
2023-01-13T12:53:33.718Z,99440.06
2023-01-13T12:56:28.753Z,99452.50
2023-01-13T12:59:41.558Z,99437.28
2023-01-13T13:02:37.662Z,99445.22
2023-01-13T13:05:35.082Z,99441.50
2023-01-13T13:08:09.005Z,99439.56
2023-01-13T13:10:39.751Z,99445.78
2023-01-13T13:13:20.410Z,99433.97
2023-01-13T13:15:49.299Z,99452.63
2023-01-13T13:18:28.497Z,99448.13
2023-01-13T13:21:04.206Z,99446.28
2023-01-13T13:23:49.033Z,99454.56
2023-01-13T13:26:23.883Z,99442.88
2023-01-13T13:29:12.915Z,99442.88
2023-01-13T13:32:04.056Z,99448.00
2023-01-13T13:34:36.762Z,99439.00
2023-01-13T13:37:22.818Z,99459.56
2023-01-13T13:40:17.117Z,99466.66
2023-01-13T13:43:10.289Z,99459.56
2023-01-13T13:45:56.066Z,99458.94
2023-01-13T13:48:26.740Z,99457.22
2023-01-13T13:51:01.062Z,99461.97
2023-01-13T13:53:32.226Z,99461.28
2023-01-13T13:56:02.737Z,99472.97
2023-01-13T13:58:36.559Z,99472.22
2023-01-13T14:01:05.396Z,99481.97
2023-01-13T14:03:38.306Z,99483.91
2023-01-13T14:06:22.653Z,99482.09
2023-01-13T14:08:51.657Z,99483.78
2023-01-13T14:11:27.227Z,99478.44
2023-01-13T14:14:02.904Z,99470.50
2023-01-13T14:16:31.773Z,99478.53
2023-01-13T14:19:00.203Z,99482.19
2023-01-13T14:21:30.725Z,99482.19
2023-01-13T14:24:03.367Z,99495.59
2023-01-13T14:26:33.591Z,99482.09
2023-01-13T14:29:03.105Z,99493.66
2023-01-13T14:31:31.576Z,99490.22
2023-01-13T14:34:02.279Z,99505.22
2023-01-13T14:36:39.026Z,99498.91
2023-01-13T14:39:27.201Z,99498.78
2023-01-13T14:41:55.277Z,99508.66
2023-01-13T14:44:26.982Z,99500.50
2023-01-13T14:46:56.619Z,99502.25
2023-01-13T14:49:27.672Z,99503.13
2023-01-13T14:52:05.897Z,99503.97
2023-01-13T14:54:44.078Z,99514.56
2023-01-13T14:57:17.536Z,99526.03
2023-01-13T14:59:51.758Z,99530.44
2023-01-13T15:02:44.702Z,99529.69
2023-01-13T15:05:47.405Z,99526.44
2023-01-13T15:08:33.991Z,99524.94
2023-01-13T15:11:04.322Z,99535.03
2023-01-13T15:13:37.238Z,99523.56
2023-01-13T15:16:07.811Z,99519.25
2023-01-13T15:18:40.094Z,99536.38
2023-01-13T15:21:09.235Z,99532.22
2023-01-13T15:23:39.982Z,99536.81
2023-01-13T15:26:19.881Z,99539.59
2023-01-13T15:28:48.450Z,99539.72
2023-01-13T15:31:17.169Z,99549.56
2023-01-13T15:33:45.239Z,99553.16
2023-01-13T15:36:32.972Z,99538.94
2023-01-13T15:39:02.607Z,99542.56
2023-01-13T15:41:48.308Z,99531.09
2023-01-13T15:44:34.389Z,99565.16
2023-01-13T15:47:04.018Z,99568.91
2023-01-13T15:49:36.247Z,99555.75
2023-01-13T15:52:05.649Z,99567.47
2023-01-13T15:54:35.062Z,99573.06
2023-01-13T15:57:03.108Z,99580.22
2023-01-13T15:59:31.322Z,99570.47
2023-01-13T16:01:59.402Z,99583.88
2023-01-13T16:04:27.476Z,99592.75
2023-01-13T16:06:55.563Z,99590.94
2023-01-13T16:09:23.750Z,99589.88
2023-01-13T16:11:53.198Z,99598.66
2023-01-13T16:14:21.348Z,99572.72
2023-01-13T16:16:49.439Z,99586.13
2023-01-13T16:19:17.510Z,99585.47
2023-01-13T16:21:46.109Z,99589.31
2023-01-13T16:24:14.194Z,99602.81
2023-01-13T16:26:42.332Z,99602.13
2023-01-13T16:29:12.978Z,99603.19
2023-01-13T16:31:41.280Z,99607.69
2023-01-13T16:34:09.385Z,99605.97
2023-01-13T16:36:38.024Z,99606.94
2023-01-13T16:39:06.723Z,99599.00
2023-01-13T16:41:35.005Z,99597.19
2023-01-13T16:44:06.099Z,99598.91
2023-01-13T16:46:35.681Z,99604.16
2023-01-13T16:49:05.634Z,99604.06
2023-01-13T16:51:34.359Z,99612.84
2023-01-13T16:54:02.452Z,99597.66
2023-01-13T16:56:32.204Z,99606.44
2023-01-13T16:59:05.757Z,99599.19
2023-01-13T17:01:37.183Z,99606.91
2023-01-13T17:04:06.148Z,99613.78
2023-01-13T17:06:38.404Z,99603.63
2023-01-13T17:09:08.564Z,99610.59
2023-01-13T17:11:36.777Z,99618.31
2023-01-13T17:14:18.486Z,99616.41
2023-01-13T17:16:48.931Z,99654.66
2023-01-13T17:19:17.148Z,99655.53
2023-01-13T17:21:47.042Z,99645.78
2023-01-13T17:24:15.588Z,99628.84
2023-01-13T17:26:47.566Z,99646.63
2023-01-13T17:29:17.851Z,99645.56
2023-01-13T17:31:46.318Z,99649.00
2023-01-13T17:34:15.851Z,99645.25
2023-01-13T17:36:43.941Z,99656.75
2023-01-13T17:39:16.238Z,99660.19
2023-01-13T17:41:44.297Z,99660.19
2023-01-13T17:44:14.342Z,99649.38
2023-01-13T17:46:42.993Z,99650.00
2023-01-13T17:49:11.701Z,99656.13
2023-01-13T17:51:41.381Z,99633.72
2023-01-13T17:54:12.427Z,99663.78
2023-01-13T17:56:40.728Z,99651.13
2023-01-13T17:59:10.360Z,99657.25
2023-01-13T18:01:39.210Z,99660.66
2023-01-13T18:04:07.965Z,99670.31
2023-01-13T18:06:36.090Z,99674.72
2023-01-13T18:09:05.547Z,99669.28
2023-01-13T18:11:33.640Z,99670.13
2023-01-13T18:14:01.767Z,99673.56
2023-01-13T18:16:31.479Z,99674.44
2023-01-13T18:19:14.409Z,99666.19
2023-01-13T18:22:00.329Z,99698.13
2023-01-13T18:24:47.298Z,99696.19
2023-01-13T18:27:23.036Z,99697.00
2023-01-13T18:29:52.368Z,99699.66
2023-01-13T18:32:21.480Z,99713.81
2023-01-13T18:34:53.932Z,99713.81
2023-01-13T18:37:27.464Z,99715.53
2023-01-13T18:39:57.109Z,99727.97
2023-01-13T18:42:42.770Z,99724.53
2023-01-13T18:45:11.636Z,99712.00
2023-01-13T18:47:42.233Z,99721.88
2023-01-13T18:50:12.269Z,99716.50
2023-01-13T18:52:40.909Z,99733.44
2023-01-13T18:55:11.310Z,99722.81
2023-01-13T18:57:40.932Z,99722.72
2023-01-13T19:00:12.344Z,99732.59
2023-01-13T19:02:40.748Z,99726.25
2023-01-13T19:05:09.362Z,99744.06
2023-01-13T19:07:37.684Z,99753.19
2023-01-13T19:10:08.146Z,99747.91
2023-01-13T19:12:37.767Z,99753.56
2023-01-13T19:15:06.660Z,99753.78
2023-01-13T19:17:36.173Z,99761.06
2023-01-13T19:20:05.093Z,99782.59
2023-01-13T19:22:35.085Z,99774.78
2023-01-13T19:25:03.769Z,99797.34
2023-01-13T19:27:32.218Z,99805.59
2023-01-13T19:30:02.707Z,99789.81
2023-01-13T19:32:33.691Z,99800.81
2023-01-13T19:35:01.819Z,99805.41
2023-01-13T19:37:31.408Z,99810.22
2023-01-13T19:39:59.644Z,99813.00
2023-01-13T19:42:45.583Z,99809.47
2023-01-13T19:45:28.159Z,99809.63
2023-01-13T19:47:57.021Z,99822.16
2023-01-13T19:50:25.292Z,99825.81
2023-01-13T19:52:53.478Z,99834.78
2023-01-13T19:55:21.620Z,99841.00
2023-01-13T19:57:49.685Z,99836.63
2023-01-13T20:00:20.940Z,99843.78
2023-01-13T20:02:51.756Z,99850.88
2023-01-13T20:05:22.535Z,99845.50
2023-01-13T20:07:51.272Z,99854.41
2023-01-13T20:10:20.674Z,99858.81
2023-01-13T20:12:48.807Z,99873.91
2023-01-13T20:15:17.126Z,99859.56
2023-01-13T20:17:46.598Z,99894.50
2023-01-13T20:20:15.823Z,99872.00
2023-01-13T20:22:43.943Z,99891.72
2023-01-13T20:25:13.325Z,99896.31
2023-01-13T20:27:41.552Z,99899.94
2023-01-13T20:30:13.360Z,99907.97
2023-01-13T20:32:41.580Z,99912.47
2023-01-13T20:35:11.726Z,99909.03
2023-01-13T20:37:40.511Z,99915.25
2023-01-13T20:40:10.391Z,99928.66
2023-01-13T20:42:44.743Z,99927.78
2023-01-13T20:45:17.126Z,99937.44
2023-01-13T20:47:46.681Z,99923.19
2023-01-13T20:50:16.795Z,99941.84
2023-01-13T20:52:45.375Z,99946.25
2023-01-13T20:55:13.860Z,99961.38
2023-01-13T20:57:41.929Z,99949.69
2023-01-13T21:00:11.366Z,99963.88
2023-01-13T21:02:41.155Z,99963.88
2023-01-13T21:05:09.804Z,99978.03
2023-01-13T21:07:39.269Z,99968.19
2023-01-13T21:10:07.942Z,99979.56
2023-01-13T21:12:53.598Z,99988.38
2023-01-13T21:15:23.012Z,99987.31
2023-01-13T21:18:09.816Z,100004.25
2023-01-13T21:20:39.346Z,100011.44
2023-01-13T21:23:10.770Z,100019.47
2023-01-13T21:25:40.205Z,100019.56
2023-01-13T21:28:11.353Z,100018.63
2023-01-13T21:30:39.718Z,100037.38
2023-01-13T21:33:08.175Z,100039.09
2023-01-13T21:35:39.381Z,100032.00
2023-01-13T21:38:08.853Z,100047.13
2023-01-13T21:40:37.019Z,100060.63
2023-01-13T21:43:22.568Z,100052.50
2023-01-13T21:46:08.394Z,100051.63
2023-01-13T21:48:36.489Z,100070.31
2023-01-13T21:51:05.003Z,100081.03
2023-01-13T21:53:34.475Z,100074.72
2023-01-13T21:56:02.614Z,100083.63
2023-01-13T21:58:30.691Z,100082.69
2023-01-13T22:01:02.117Z,100095.22
2023-01-13T22:03:30.281Z,100095.31
2023-01-13T22:05:58.329Z,100107.66
2023-01-13T22:08:26.387Z,100122.88
2023-01-13T22:10:59.347Z,100124.50
2023-01-13T22:13:46.689Z,100129.75
2023-01-13T22:16:15.910Z,100151.13
2023-01-13T22:18:44.083Z,100143.06
2023-01-13T22:21:12.588Z,100155.50
2023-01-13T22:23:40.681Z,100161.84
2023-01-13T22:26:10.158Z,100167.09
2023-01-13T22:28:42.916Z,100157.44
2023-01-13T22:31:12.207Z,100178.88
2023-01-13T22:33:40.568Z,100175.41
2023-01-13T22:36:10.207Z,100173.69
2023-01-13T22:38:38.355Z,100198.78
2023-01-13T22:41:08.087Z,100184.59
2023-01-13T22:43:38.323Z,100195.47
2023-01-13T22:46:08.468Z,100210.97
2023-01-13T22:48:36.897Z,100205.97
2023-01-13T22:51:06.651Z,100218.56
2023-01-13T22:53:35.166Z,100219.59
2023-01-13T22:56:03.294Z,100225.06
2023-01-13T22:58:31.480Z,100243.91
2023-01-13T23:01:10.427Z,100229.56
2023-01-13T23:03:38.626Z,100248.31
2023-01-13T23:06:07.291Z,100244.75
2023-01-13T23:08:35.927Z,100249.34
2023-01-13T23:11:04.781Z,100256.63
2023-01-13T23:13:32.932Z,100263.06
2023-01-13T23:16:03.908Z,100271.97
2023-01-13T23:18:33.659Z,100268.69
2023-01-13T23:21:05.863Z,100272.41
2023-01-13T23:23:35.203Z,100279.66
2023-01-13T23:26:03.792Z,100287.69
2023-01-13T23:28:32.047Z,100297.59
2023-01-13T23:31:00.241Z,100298.56
2023-01-13T23:33:28.362Z,100293.19
2023-01-13T23:35:58.631Z,100290.38
2023-01-13T23:38:27.130Z,100294.63
2023-01-13T23:40:55.419Z,100304.19
2023-01-13T23:43:24.047Z,100307.66
2023-01-13T23:45:52.170Z,100307.50
2023-01-13T23:48:20.368Z,100304.75
2023-01-13T23:50:59.205Z,100317.09
2023-01-13T23:53:33.257Z,100322.28
2023-01-13T23:56:01.949Z,100321.31
2023-01-13T23:58:30.836Z,100320.38
